Portada
METAR-TAF:

METAR-TAF

Aeroports :

Southampton, Anglaterra

latitud: 50-54N, longitud: 001-24W, altitud: 9 m

Observació

L'informe es va fer fa 39 minuts, a les 21:20 UTC
Vent 1 kt del Nord
Temperatura 19°C
Humitat 68%
Pressió 1017 hPa
Visibilitat 10 km o més
sense núvols per sota de 1500 mi sense presència de cumulonimbus.

METAR: EGHI 242120Z 01001KT CAVOK 19/13 Q1017

Hora: 22:59 (21:59 UTC)

Pronòstic

L'informe es va fer fa 5 hores i 3 minuts, a les 16:56 UTC
Pronòstic vàlid del 24 a les 18 UTC al 24 a les 22 UTC
Vent 3 kt del Est
Visibilitat 10 km o més
Escasses núvols a una alçada de 2500 ft

TAF: EGHI 241656Z 2418/2422 10003KT 9999 FEW025

Observacions i pronòstics meteorològics de més de 4000 aeroports (METAR i TAF).

Les estacions disponibles són els punts grocs i vermells al mapa.

Posi el ratolí al punt desitjat per veure el nom de l'estació.

Feu clic per veure les observacions i els pronòstics meteorològics.

Per canviar el mapa: feu clic els botons verds amb una creu de color negre per apropar; al botó verd amb un guió per allunyar la imatge; o en les fletxes verdes per a mapes adjacents.


METAR-TAF: